Time;durP1;ratioP1;P1;durP2;ratioP2;P2;SDS_P1;SDS_P2;PMS_P1;PMS_P2;Temp;Humidity;BMP_temperature;BMP_pressure;BME280_temperature;BME280_humidity;BME280_pressure;Samples;Min_cycle;Max_cycle;Signal;HPM_P1;HPM_P2
2021/01/08 00:02:22;;;;;;;9.10;1.90;;;22.60;20.80;;;;;;5103735;28;20083;-56
2021/01/08 00:04:48;;;;;;;6.13;1.77;;;22.50;21.40;;;;;;5109469;28;20095;-58
2021/01/08 00:07:15;;;;;;;6.82;1.83;;;22.40;21.40;;;;;;5108829;28;20478;-59
2021/01/08 00:09:42;;;;;;;11.07;1.88;;;22.30;21.60;;;;;;5105607;28;20078;-57
2021/01/08 00:12:09;;;;;;;7.55;1.63;;;22.20;21.80;;;;;;5108219;28;20527;-57
2021/01/08 00:14:35;;;;;;;15.07;2.40;;;22.10;22.10;;;;;;5108590;28;20102;-54
2021/01/08 00:17:02;;;;;;;48.47;4.88;;;22.00;22.30;;;;;;5105225;28;20167;-58
2021/01/08 00:19:29;;;;;;;37.33;5.00;;;21.90;22.40;;;;;;5089360;28;20095;-58
2021/01/08 00:21:55;;;;;;;30.67;4.55;;;21.80;22.50;;;;;;5107039;28;20427;-57
2021/01/08 00:24:22;;;;;;;30.55;4.50;;;21.70;23.10;;;;;;5105496;28;20082;-57
2021/01/08 00:26:48;;;;;;;28.55;3.85;;;21.70;23.60;;;;;;5107590;28;20075;-59
2021/01/08 00:29:16;;;;;;;20.35;3.75;;;21.60;24.00;;;;;;5106893;28;20090;-58
2021/01/08 00:31:45;;;;;;;15.52;3.60;;;21.50;23.90;;;;;;5107023;28;20075;-56
2021/01/08 00:34:15;;;;;;;14.95;3.42;;;21.40;24.60;;;;;;5105909;28;20557;-59
2021/01/08 00:36:53;;;;;;;13.68;3.25;;;21.30;24.40;;;;;;5106273;28;20091;-59
2021/01/08 00:39:20;;;;;;;19.40;3.35;;;21.20;24.10;;;;;;5107060;27;20197;-58
2021/01/08 00:41:47;;;;;;;13.05;3.70;;;21.10;24.40;;;;;;5106613;28;20187;-54
2021/01/08 00:44:15;;;;;;;21.00;4.15;;;20.90;24.40;;;;;;5104201;28;20066;-56
2021/01/08 00:46:44;;;;;;;21.88;4.38;;;20.80;24.50;;;;;;5105691;28;20070;-57
2021/01/08 00:49:11;;;;;;;29.27;5.70;;;20.70;25.00;;;;;;5105706;28;20556;-56
2021/01/08 00:51:39;;;;;;;24.98;5.90;;;20.50;25.30;;;;;;5104184;28;20457;-56
2021/01/08 00:54:06;;;;;;;31.30;5.10;;;20.40;25.60;;;;;;5088509;28;20082;-59
2021/01/08 00:56:33;;;;;;;13.25;4.50;;;20.20;25.90;;;;;;5102436;28;20543;-57
2021/01/08 00:59:00;;;;;;;17.33;3.92;;;20.10;26.30;;;;;;5107667;28;20071;-59
2021/01/08 01:01:28;;;;;;;23.33;4.45;;;20.00;26.00;;;;;;5103334;28;20071;-58
2021/01/08 01:03:55;;;;;;;21.73;4.18;;;19.80;26.30;;;;;;5103121;28;20120;-59
2021/01/08 01:06:30;;;;;;;15.45;4.53;;;19.60;27.60;;;;;;5105750;28;20102;-57
2021/01/08 01:08:58;;;;;;;23.98;4.85;;;19.50;26.90;;;;;;5107365;28;20082;-59
2021/01/08 01:11:26;;;;;;;31.33;5.05;;;19.30;27.40;;;;;;5105078;28;20118;-59
2021/01/08 01:13:57;;;;;;;25.35;5.65;;;19.20;28.00;;;;;;5105284;28;20477;-56
2021/01/08 01:16:25;;;;;;;23.73;5.22;;;19.10;28.50;;;;;;5101346;28;20114;-58
2021/01/08 01:18:53;;;;;;;20.30;5.65;;;19.00;29.10;;;;;;5103779;28;20076;-59
2021/01/08 01:21:20;;;;;;;27.67;5.95;;;18.80;29.20;;;;;;5104533;28;20074;-57
2021/01/08 01:23:47;;;;;;;37.25;6.60;;;18.70;29.30;;;;;;5102843;28;20064;-57
2021/01/08 01:26:14;;;;;;;26.02;6.95;;;18.60;29.40;;;;;;5102584;28;20079;-59
2021/01/08 01:28:40;;;;;;;36.38;10.10;;;18.40;29.60;;;;;;5087436;28;20071;-58
2021/01/08 01:31:07;;;;;;;45.42;10.77;;;18.30;29.90;;;;;;5106733;28;20579;-55
2021/01/08 01:33:34;;;;;;;34.13;10.20;;;18.20;30.30;;;;;;5103086;28;20129;-59
2021/01/08 01:36:06;;;;;;;34.65;8.55;;;18.10;31.00;;;;;;5086913;28;20520;-57
2021/01/08 01:38:34;;;;;;;35.25;8.52;;;17.90;31.30;;;;;;5100173;28;20164;-59
2021/01/08 01:41:01;;;;;;;36.47;8.13;;;17.80;31.60;;;;;;5105380;27;20076;-59
2021/01/08 01:43:28;;;;;;;35.97;7.68;;;17.70;31.90;;;;;;5102848;28;20071;-59
2021/01/08 01:45:54;;;;;;;28.95;6.60;;;17.60;32.90;;;;;;5102833;28;20206;-57
2021/01/08 01:48:23;;;;;;;24.58;6.32;;;17.50;33.50;;;;;;5102118;28;20132;-58
2021/01/08 01:50:50;;;;;;;25.20;7.10;;;17.40;33.70;;;;;;5105105;28;20087;-58
2021/01/08 01:53:16;;;;;;;27.13;6.13;;;17.40;33.80;;;;;;5107674;28;20078;-58
2021/01/08 01:55:43;;;;;;;;;;;17.20;33.80;;;;;;5108588;28;20076;-59
2021/01/08 01:58:10;;;;;;;29.88;6.35;;;17.20;34.00;;;;;;5104378;28;20019;-56
2021/01/08 02:00:36;;;;;;;34.92;6.63;;;17.10;33.90;;;;;;5104692;28;20083;-61
2021/01/08 02:03:13;;;;;;;;;;;17.00;34.00;;;;;;5106252;28;20108;-59
2021/01/08 02:05:41;;;;;;;43.45;7.55;;;16.90;34.10;;;;;;5106084;28;20042;-59
2021/01/08 02:08:08;;;;;;;38.45;7.75;;;16.80;34.60;;;;;;5106791;28;20104;-56
2021/01/08 02:10:52;;;;;;;39.60;9.27;;;16.70;35.00;;;;;;5103153;28;20068;-60
2021/01/08 02:13:28;;;;;;;53.50;11.05;;;16.70;35.50;;;;;;5102455;28;20068;-57
2021/01/08 02:15:57;;;;;;;67.22;16.33;;;16.60;35.60;;;;;;5106814;28;20150;-62
2021/01/08 02:18:25;;;;;;;89.15;15.98;;;16.50;35.70;;;;;;5103263;28;20163;-60
2021/01/08 02:20:55;;;;;;;66.95;17.17;;;16.40;36.00;;;;;;5103722;28;20087;-59
2021/01/08 02:23:39;;;;;;;62.67;18.15;;;16.30;36.20;;;;;;5078949;28;20100;-59
2021/01/08 02:26:06;;;;;;;72.82;19.40;;;16.30;36.00;;;;;;5103251;28;21253;-61
2021/01/08 02:28:33;;;;;;;59.28;18.05;;;16.20;36.30;;;;;;5103977;28;20525;-59
2021/01/08 02:31:01;;;;;;;66.03;17.98;;;16.10;36.40;;;;;;5107613;28;20075;-58
2021/01/08 02:33:28;;;;;;;62.05;17.83;;;16.10;36.70;;;;;;5109752;28;20104;-60
2021/01/08 02:35:59;;;;;;;71.60;19.27;;;16.00;36.90;;;;;;5108495;28;20142;-62
2021/01/08 02:38:26;;;;;;;63.38;18.77;;;15.80;37.00;;;;;;5104727;28;20187;-61
2021/01/08 02:40:53;;;;;;;73.57;19.08;;;15.80;36.90;;;;;;5105473;28;20092;-60
2021/01/08 02:43:23;;;;;;;79.78;18.45;;;15.80;37.30;;;;;;5108453;28;20133;-58
2021/01/08 02:45:51;;;;;;;67.28;18.90;;;15.70;37.50;;;;;;5103746;28;20484;-61
2021/01/08 02:48:18;;;;;;;81.28;18.33;;;15.60;37.50;;;;;;5107533;28;20072;-55
2021/01/08 02:50:45;;;;;;;73.75;19.02;;;15.60;37.50;;;;;;5089789;28;20556;-60
2021/01/08 02:53:16;;;;;;;65.20;16.98;;;15.60;37.80;;;;;;5106731;28;20076;-57
2021/01/08 02:55:51;;;;;;;65.57;17.25;;;15.50;38.10;;;;;;5109355;28;20145;-61
2021/01/08 02:58:19;;;;;;;66.38;16.95;;;15.50;38.50;;;;;;5109534;28;20091;-61
2021/01/08 03:00:46;;;;;;;81.72;18.77;;;15.50;38.40;;;;;;5109006;28;20432;-59
2021/01/08 03:03:14;;;;;;;67.85;16.88;;;15.40;39.00;;;;;;5106856;28;20413;-59
2021/01/08 03:05:41;;;;;;;71.75;19.17;;;15.40;39.50;;;;;;5103093;28;20065;-59
2021/01/08 03:08:08;;;;;;;66.22;18.05;;;15.30;39.90;;;;;;5103660;28;20621;-59
2021/01/08 03:10:35;;;;;;;63.60;18.67;;;15.30;40.10;;;;;;5111063;28;20088;-59
2021/01/08 03:13:04;;;;;;;84.05;18.10;;;15.20;39.90;;;;;;5108176;28;20470;-59
2021/01/08 03:15:31;;;;;;;60.30;18.90;;;15.20;39.60;;;;;;5104895;28;20073;-60
2021/01/08 03:17:59;;;;;;;66.60;19.13;;;15.10;40.00;;;;;;5108766;28;20096;-60
2021/01/08 03:20:25;;;;;;;62.33;19.67;;;15.10;40.50;;;;;;5108550;28;20072;-60
2021/01/08 03:22:52;;;;;;;60.88;19.40;;;15.10;40.50;;;;;;5107729;28;20589;-60
2021/01/08 03:25:18;;;;;;;;;;;15.00;40.20;;;;;;5110192;28;20145;-59
2021/01/08 03:27:45;;;;;;;50.95;14.57;;;15.00;39.30;;;;;;5108322;28;20025;-57
2021/01/08 03:30:11;;;;;;;;;;;15.00;38.20;;;;;;5105599;28;20075;-60
2021/01/08 03:32:38;;;;;;;64.15;15.00;;;15.00;39.30;;;;;;5103248;28;19995;-58
2021/01/08 03:35:08;;;;;;;69.78;14.13;;;15.00;39.00;;;;;;5086652;28;20143;-59
2021/01/08 03:37:36;;;;;;;49.85;11.95;;;15.00;39.10;;;;;;5065110;28;20097;-60
2021/01/08 03:40:05;;;;;;;62.15;14.20;;;15.00;39.30;;;;;;5084630;28;20427;-62
2021/01/08 03:42:32;;;;;;;58.78;13.82;;;14.90;38.90;;;;;;5084013;28;20085;-59
2021/01/08 03:44:58;;;;;;;48.75;13.82;;;14.90;39.10;;;;;;5083905;28;20065;-62
2021/01/08 03:47:24;;;;;;;;;;;14.80;39.90;;;;;;5085611;28;20133;-61
2021/01/08 03:49:51;;;;;;;57.92;15.75;;;14.80;39.90;;;;;;5085717;28;20394;-62
2021/01/08 03:52:17;;;;;;;67.45;16.95;;;14.80;40.30;;;;;;5086470;28;20073;-60
2021/01/08 03:54:43;;;;;;;;;;;14.80;40.30;;;;;;5067165;28;20484;-60
2021/01/08 03:57:10;;;;;;;55.28;14.85;;;14.80;39.70;;;;;;5081082;28;19984;-59
2021/01/08 03:59:37;;;;;;;56.92;14.98;;;14.80;39.70;;;;;;5103140;28;20126;-59
2021/01/08 04:02:03;;;;;;;;;;;14.70;39.60;;;;;;5085336;28;20499;-58
2021/01/08 04:04:29;;;;;;;53.67;15.65;;;14.60;39.20;;;;;;5088669;28;19957;-58
2021/01/08 04:06:55;;;;;;;;;;;14.60;40.10;;;;;;5085232;28;20077;-59
2021/01/08 04:09:22;;;;;;;57.53;17.10;;;14.60;40.60;;;;;;5084645;28;20003;-60
2021/01/08 04:11:48;;;;;;;;;;;14.60;41.00;;;;;;5087136;28;20080;-59
2021/01/08 04:14:15;;;;;;;73.95;19.92;;;14.60;40.90;;;;;;5085739;28;20420;-60
2021/01/08 04:16:41;;;;;;;;;;;14.60;40.40;;;;;;5084994;28;20097;-59
2021/01/08 04:19:09;;;;;;;68.32;21.33;;;14.60;40.80;;;;;;5083787;28;19956;-60
2021/01/08 04:21:36;;;;;;;78.43;20.92;;;14.50;40.90;;;;;;5085816;28;21452;-60
2021/01/08 04:24:03;;;;;;;75.10;21.17;;;14.50;41.50;;;;;;5083117;28;20073;-58
2021/01/08 04:26:30;;;;;;;93.18;21.15;;;14.50;41.10;;;;;;5079036;28;20546;-59
2021/01/08 04:28:57;;;;;;;88.40;20.98;;;14.40;41.00;;;;;;5084853;28;20100;-59
2021/01/08 04:31:24;;;;;;;86.70;20.30;;;14.40;41.30;;;;;;5083970;28;20077;-60
2021/01/08 04:33:51;;;;;;;84.35;20.83;;;14.40;41.60;;;;;;5077207;28;20518;-59
2021/01/08 04:36:17;;;;;;;83.32;20.95;;;14.30;41.40;;;;;;5082481;28;20497;-59
2021/01/08 04:38:43;;;;;;;;;;;14.30;41.30;;;;;;5090467;28;20111;-61
2021/01/08 04:41:10;;;;;;;89.00;21.85;;;14.30;41.40;;;;;;5088782;28;20055;-60
2021/01/08 04:43:36;;;;;;;;;;;14.30;41.60;;;;;;5090786;28;20095;-62
2021/01/08 04:46:26;;;;;;;86.82;23.35;;;14.20;41.60;;;;;;5090259;28;19961;-60
2021/01/08 04:49:01;;;;;;;95.90;26.73;;;14.20;41.60;;;;;;5086959;28;20081;-61
2021/01/08 04:51:30;;;;;;;84.68;24.58;;;14.20;42.00;;;;;;5090341;28;20068;-60
2021/01/08 04:53:57;;;;;;;103.57;27.55;;;14.20;42.10;;;;;;5087873;28;20081;-57
2021/01/08 04:56:26;;;;;;;99.03;27.90;;;14.20;42.40;;;;;;5086860;28;20104;-58
2021/01/08 04:58:53;;;;;;;99.03;25.90;;;14.20;42.40;;;;;;5089186;28;20080;-62
2021/01/08 05:01:20;;;;;;;101.32;26.67;;;14.20;43.20;;;;;;5089219;28;20613;-60
2021/01/08 05:03:47;;;;;;;93.40;25.90;;;14.20;42.90;;;;;;5087028;28;20116;-58
2021/01/08 05:06:14;;;;;;;105.95;27.15;;;14.20;42.90;;;;;;5089331;28;20090;-59
2021/01/08 05:08:42;;;;;;;93.25;26.80;;;14.10;43.00;;;;;;5070230;28;20141;-57
2021/01/08 05:11:25;;;;;;;86.32;27.92;;;14.10;43.10;;;;;;5090462;28;20073;-59
2021/01/08 05:14:00;;;;;;;87.57;28.63;;;14.10;43.20;;;;;;5087646;28;20102;-61
2021/01/08 05:16:29;;;;;;;103.38;29.55;;;14.10;43.10;;;;;;5087669;28;20440;-60
2021/01/08 05:18:57;;;;;;;107.93;29.52;;;14.10;43.50;;;;;;5106067;28;20145;-58
2021/01/08 05:21:25;;;;;;;107.53;29.42;;;14.10;44.00;;;;;;5088374;28;20468;-58
2021/01/08 05:23:57;;;;;;;116.28;30.67;;;14.10;44.20;;;;;;5069998;28;20521;-57
2021/01/08 05:26:25;;;;;;;96.38;30.38;;;14.10;44.00;;;;;;5088763;28;20088;-58
2021/01/08 05:28:57;;;;;;;106.00;32.08;;;14.10;43.80;;;;;;5089212;28;20540;-59
2021/01/08 05:31:29;;;;;;;123.72;38.35;;;14.10;44.20;;;;;;5090948;28;20104;-61
2021/01/08 05:33:56;;;;;;;115.40;38.65;;;14.00;44.00;;;;;;5099986;28;20116;-59
2021/01/08 05:36:23;;;;;;;129.43;35.15;;;14.00;43.60;;;;;;5107948;28;20536;-59
2021/01/08 05:38:52;;;;;;;128.55;36.95;;;14.00;43.50;;;;;;5105649;28;20080;-60
2021/01/08 05:41:22;;;;;;;106.20;34.47;;;14.00;43.70;;;;;;5105168;28;20071;-57
2021/01/08 05:43:48;;;;;;;122.88;33.60;;;14.00;43.50;;;;;;5102177;28;20072;-60
2021/01/08 05:46:17;;;;;;;136.38;37.30;;;14.00;43.80;;;;;;5105331;28;20076;-57
2021/01/08 05:48:48;;;;;;;122.97;34.05;;;14.00;43.60;;;;;;5104809;28;20076;-59
2021/01/08 05:51:19;;;;;;;114.50;33.33;;;14.00;43.90;;;;;;5103892;28;20068;-58
2021/01/08 05:53:54;;;;;;;133.57;32.10;;;14.10;45.00;;;;;;5080740;28;20107;-58
2021/01/08 05:56:22;;;;;;;127.88;35.15;;;14.00;45.40;;;;;;5105271;28;21160;-59
2021/01/08 05:58:50;;;;;;;124.43;36.17;;;14.00;45.30;;;;;;5107565;28;20076;-60
2021/01/08 06:01:17;;;;;;;117.53;34.15;;;14.00;44.50;;;;;;5105067;28;20075;-59
2021/01/08 06:03:45;;;;;;;117.50;34.67;;;14.00;44.80;;;;;;5107494;28;20161;-59
2021/01/08 06:06:13;;;;;;;124.72;36.60;;;14.00;45.00;;;;;;5106469;28;20458;-59
2021/01/08 06:08:45;;;;;;;127.13;37.88;;;14.00;45.00;;;;;;5085960;28;20133;-57
2021/01/08 06:11:18;;;;;;;116.07;36.90;;;13.90;44.90;;;;;;5102179;28;20103;-58
2021/01/08 06:13:50;;;;;;;139.10;40.58;;;13.90;45.30;;;;;;5105844;28;20084;-60
2021/01/08 06:16:21;;;;;;;131.85;38.80;;;13.90;44.90;;;;;;5107742;28;20455;-59
2021/01/08 06:18:54;;;;;;;136.75;37.35;;;13.90;45.50;;;;;;5104999;28;20123;-60
2021/01/08 06:21:38;;;;;;;126.53;38.33;;;13.90;45.50;;;;;;5101656;28;20073;-58
2021/01/08 06:24:05;;;;;;;112.88;35.33;;;13.90;45.40;;;;;;5105452;28;20104;-59
2021/01/08 06:26:32;;;;;;;133.48;38.00;;;13.90;45.40;;;;;;5105555;28;20678;-60
2021/01/08 06:29:03;;;;;;;118.45;37.20;;;13.90;45.20;;;;;;5103558;28;20103;-57
2021/01/08 06:31:36;;;;;;;120.80;37.30;;;13.90;46.10;;;;;;5105615;28;20096;-61
2021/01/08 06:34:03;;;;;;;120.70;37.05;;;13.90;45.70;;;;;;5106060;28;20110;-56
2021/01/08 06:36:32;;;;;;;133.02;38.85;;;13.90;45.60;;;;;;5105415;28;20096;-57
2021/01/08 06:39:11;;;;;;;127.93;37.63;;;13.80;45.60;;;;;;5106204;28;20487;-59
2021/01/08 06:41:43;;;;;;;115.68;35.38;;;13.80;45.80;;;;;;5089594;28;20068;-57
2021/01/08 06:44:21;;;;;;;131.05;37.63;;;13.80;46.30;;;;;;5104186;28;20084;-58
2021/01/08 06:46:51;;;;;;;116.15;37.88;;;13.70;46.20;;;;;;5103649;28;20079;-57
2021/01/08 06:49:22;;;;;;;133.45;37.47;;;13.60;46.30;;;;;;5107282;28;20064;-60
2021/01/08 06:51:49;;;;;;;131.40;36.40;;;13.50;46.30;;;;;;5104970;28;20064;-60
2021/01/08 06:54:15;;;;;;;118.10;36.63;;;13.50;47.00;;;;;;5103921;28;20087;-56
2021/01/08 06:56:42;;;;;;;;;;;13.40;47.20;;;;;;5107729;28;20104;-60
2021/01/08 06:59:11;;;;;;;143.52;36.88;;;13.40;47.10;;;;;;5108295;28;19964;-58
2021/01/08 07:01:43;;;;;;;116.20;34.08;;;13.40;47.00;;;;;;5105493;28;20080;-58
2021/01/08 07:04:13;;;;;;;119.85;37.72;;;13.40;46.80;;;;;;5106146;28;20072;-55
2021/01/08 07:06:41;;;;;;;141.90;37.25;;;13.30;46.90;;;;;;5104191;28;20132;-59
2021/01/08 07:09:08;;;;;;;133.80;36.72;;;13.30;47.00;;;;;;5101584;28;20071;-58
2021/01/08 07:11:36;;;;;;;132.30;38.45;;;13.30;47.00;;;;;;5104746;28;20088;-56
2021/01/08 07:14:06;;;;;;;136.40;38.38;;;13.30;47.50;;;;;;5104875;28;20146;-57
2021/01/08 07:16:32;;;;;;;132.55;37.58;;;13.30;47.50;;;;;;5103582;28;20119;-57
2021/01/08 07:19:08;;;;;;;132.82;39.60;;;13.30;47.60;;;;;;5107039;28;20737;-59
2021/01/08 07:21:35;;;;;;;123.68;36.67;;;13.20;47.20;;;;;;5105905;28;20072;-59
2021/01/08 07:24:03;;;;;;;;;;;13.20;47.70;;;;;;5108640;28;21677;-58
2021/01/08 07:26:30;;;;;;;132.68;37.67;;;13.10;47.70;;;;;;5104518;28;19961;-57
2021/01/08 07:28:57;;;;;;;132.40;40.15;;;13.10;48.00;;;;;;5105902;28;20067;-58
2021/01/08 07:31:31;;;;;;;126.68;39.15;;;13.10;48.20;;;;;;5092580;28;20068;-58
2021/01/08 07:34:01;;;;;;;140.25;39.13;;;13.10;48.30;;;;;;5093208;28;20112;-59
2021/01/08 07:36:29;;;;;;;118.43;37.50;;;13.00;48.00;;;;;;5105803;28;20136;-59
2021/01/08 07:38:56;;;;;;;115.38;35.80;;;13.00;48.10;;;;;;5103237;28;20118;-59
2021/01/08 07:41:33;;;;;;;109.57;37.55;;;12.90;48.30;;;;;;5084638;28;20068;-58
2021/01/08 07:44:02;;;;;;;115.75;35.83;;;12.90;48.80;;;;;;5108001;28;20528;-59
2021/01/08 07:46:34;;;;;;;129.68;38.20;;;12.90;49.40;;;;;;5109479;28;20080;-58
2021/01/08 07:49:02;;;;;;;118.85;37.08;;;12.80;49.50;;;;;;5109035;28;20142;-60
2021/01/08 07:51:45;;;;;;;122.45;37.38;;;12.70;49.70;;;;;;5110749;28;20083;-59
2021/01/08 07:54:16;;;;;;;115.35;35.50;;;12.70;49.80;;;;;;5104434;28;20083;-57
2021/01/08 07:57:16;;;;;;;126.45;37.33;;;12.60;49.90;;;;;;5100551;28;20096;-56
2021/01/08 07:59:42;;;;;;;122.43;38.45;;;12.50;49.80;;;;;;5075720;28;20084;-57
2021/01/08 08:02:08;;;;;;;;;;;12.50;49.60;;;;;;5092880;28;20159;-56
2021/01/08 08:04:37;;;;;;;139.20;36.20;;;12.50;49.70;;;;;;5103068;28;19964;-57
2021/01/08 08:07:04;;;;;;;118.25;36.22;;;12.50;49.90;;;;;;5109706;28;20072;-57
2021/01/08 08:09:31;;;;;;;105.25;37.47;;;12.50;50.20;;;;;;5108642;28;20111;-57
2021/01/08 08:11:59;;;;;;;120.22;36.13;;;12.40;50.70;;;;;;5090189;28;20075;-57
2021/01/08 08:14:25;;;;;;;116.25;36.65;;;12.30;50.80;;;;;;5087184;28;20079;-54
2021/01/08 08:16:54;;;;;;;115.60;35.85;;;12.30;50.60;;;;;;5104415;27;20104;-57
2021/01/08 08:19:20;;;;;;;115.60;34.65;;;12.30;50.60;;;;;;5086594;28;20084;-57
2021/01/08 08:21:51;;;;;;;;;;;12.20;50.80;;;;;;5106329;28;20454;-58
2021/01/08 08:24:18;;;;;;;134.00;36.95;;;12.10;51.00;;;;;;5104332;28;19963;-56
2021/01/08 08:26:46;;;;;;;127.93;39.65;;;12.00;51.10;;;;;;5108987;28;20111;-56
2021/01/08 08:29:17;;;;;;;134.20;42.40;;;11.90;51.00;;;;;;5109971;28;20155;-58
2021/01/08 08:31:50;;;;;;;137.13;39.72;;;11.90;51.40;;;;;;5108803;28;20078;-57
2021/01/08 08:34:29;;;;;;;126.75;39.25;;;11.90;51.70;;;;;;5109541;28;20124;-59
2021/01/08 08:37:09;;;;;;;126.57;37.03;;;12.00;51.70;;;;;;5071361;28;20092;-55
2021/01/08 08:39:37;;;;;;;118.45;36.97;;;11.90;51.60;;;;;;5090757;28;20112;-57
2021/01/08 08:42:04;;;;;;;129.70;36.55;;;11.90;52.20;;;;;;5090039;28;20076;-59
2021/01/08 08:44:42;;;;;;;116.43;37.40;;;11.90;52.30;;;;;;5109630;28;20193;-58
2021/01/08 08:47:08;;;;;;;106.90;38.28;;;11.70;52.60;;;;;;5109567;28;20072;-58
2021/01/08 08:49:37;;;;;;;;;;;11.80;52.30;;;;;;5109149;28;20159;-60
2021/01/08 08:52:05;;;;;;;129.48;37.83;;;11.70;52.50;;;;;;5107129;28;20381;-58
2021/01/08 08:54:38;;;;;;;126.65;36.40;;;11.70;52.30;;;;;;5109346;28;20136;-59
2021/01/08 08:57:05;;;;;;;126.13;36.92;;;11.70;52.40;;;;;;5108202;28;20104;-53
2021/01/08 08:59:38;;;;;;;113.32;37.08;;;11.60;52.70;;;;;;5092215;28;20072;-57
2021/01/08 09:02:09;;;;;;;110.85;34.95;;;11.50;52.70;;;;;;5110220;28;20079;-56
2021/01/08 09:04:36;;;;;;;118.63;38.25;;;11.50;52.80;;;;;;5109553;28;20072;-58
2021/01/08 09:07:19;;;;;;;120.13;37.63;;;11.30;52.80;;;;;;5108645;28;20121;-56
2021/01/08 09:09:50;;;;;;;113.47;35.80;;;11.30;53.00;;;;;;5110485;28;20103;-57
2021/01/08 09:12:43;;;;;;;117.38;37.25;;;11.40;53.20;;;;;;5107334;28;20103;-58
2021/01/08 09:15:16;;;;;;;119.75;37.28;;;11.40;53.30;;;;;;5089474;28;20080;-58
2021/01/08 09:17:46;;;;;;;117.82;37.05;;;11.40;53.30;;;;;;5108360;28;20570;-60
2021/01/08 09:20:15;;;;;;;125.03;37.03;;;11.50;53.40;;;;;;5107711;28;20532;-58
2021/01/08 09:22:44;;;;;;;137.43;37.83;;;11.50;53.40;;;;;;5108453;28;20088;-58
2021/01/08 09:25:12;;;;;;;108.72;37.58;;;11.50;53.40;;;;;;5109387;28;20166;-58
2021/01/08 09:27:42;;;;;;;103.93;37.72;;;11.40;53.70;;;;;;5108804;28;20163;-53
2021/01/08 09:30:13;;;;;;;134.55;39.70;;;11.40;53.70;;;;;;5108307;28;20064;-59
2021/01/08 09:32:40;;;;;;;121.85;38.22;;;11.30;53.50;;;;;;5105613;28;20130;-57
2021/01/08 09:35:10;;;;;;;;;;;11.30;53.50;;;;;;5063875;28;20064;-55
2021/01/08 09:37:48;;;;;;;119.72;38.58;;;11.30;53.70;;;;;;5085926;28;19984;-58
2021/01/08 09:40:16;;;;;;;137.00;41.08;;;11.30;53.90;;;;;;5065411;28;20065;-57
2021/01/08 09:42:44;;;;;;;119.28;39.30;;;11.30;53.70;;;;;;5077144;28;20084;-60
2021/01/08 09:45:19;;;;;;;120.78;39.47;;;11.20;53.50;;;;;;5085138;28;20077;-56
2021/01/08 09:47:45;;;;;;;120.72;39.05;;;11.10;54.10;;;;;;5084805;28;20090;-59
2021/01/08 09:50:26;;;;;;;128.40;40.17;;;11.10;54.20;;;;;;5083391;28;20072;-58
2021/01/08 09:52:56;;;;;;;120.50;40.28;;;11.10;54.20;;;;;;5084965;28;20068;-56
2021/01/08 09:55:24;;;;;;;124.93;38.97;;;11.10;54.20;;;;;;5082359;28;20525;-58
2021/01/08 09:57:58;;;;;;;129.60;39.00;;;11.10;54.30;;;;;;5083435;28;20100;-56
2021/01/08 10:00:35;;;;;;;109.50;40.00;;;11.10;53.90;;;;;;5081705;28;20152;-57
2021/01/08 10:03:02;;;;;;;110.63;37.70;;;11.10;53.90;;;;;;5084936;28;21295;-57
2021/01/08 10:05:33;;;;;;;108.28;35.88;;;11.00;54.30;;;;;;5082826;28;20118;-56
2021/01/08 10:08:02;;;;;;;109.38;37.75;;;11.00;54.20;;;;;;5082843;28;20087;-59
2021/01/08 10:10:29;;;;;;;95.75;34.95;;;11.00;54.60;;;;;;5080537;28;20069;-59
2021/01/08 10:12:58;;;;;;;104.45;36.67;;;11.00;54.90;;;;;;5083874;28;20077;-58
2021/01/08 10:15:38;;;;;;;103.07;36.38;;;11.00;54.70;;;;;;5067138;28;20134;-58
2021/01/08 10:18:10;;;;;;;112.00;32.97;;;10.90;54.70;;;;;;5083324;28;20128;-57
2021/01/08 10:20:42;;;;;;;87.10;30.08;;;10.70;54.90;;;;;;5064732;28;20079;-58
2021/01/08 10:23:13;;;;;;;88.05;32.28;;;10.80;55.10;;;;;;5081820;28;20123;-55
2021/01/08 10:25:40;;;;;;;110.32;31.25;;;10.80;55.40;;;;;;5081838;28;20077;-57
2021/01/08 10:28:13;;;;;;;82.45;30.13;;;10.70;56.30;;;;;;5083426;28;20424;-56
2021/01/08 10:30:40;;;;;;;87.63;30.98;;;10.60;56.10;;;;;;5083202;28;20534;-57
2021/01/08 10:33:08;;;;;;;90.63;30.30;;;10.60;55.70;;;;;;5085299;28;20553;-57
2021/01/08 10:35:36;;;;;;;89.50;30.40;;;10.70;55.80;;;;;;5086963;28;20525;-56
2021/01/08 10:38:03;;;;;;;84.60;29.42;;;10.60;55.90;;;;;;5086825;28;20100;-57
2021/01/08 10:40:30;;;;;;;89.00;29.73;;;10.70;55.70;;;;;;5086231;28;20073;-54
2021/01/08 10:42:56;;;;;;;82.43;28.92;;;10.60;55.60;;;;;;5084715;28;20130;-58
2021/01/08 10:45:23;;;;;;;;;;;10.50;56.40;;;;;;5083523;28;20070;-55
2021/01/08 10:47:49;;;;;;;79.78;28.25;;;10.40;56.70;;;;;;5083279;28;19961;-58
2021/01/08 10:50:16;;;;;;;;;;;10.30;56.90;;;;;;5083841;28;20084;-57
2021/01/08 10:52:44;;;;;;;84.93;28.55;;;10.30;56.90;;;;;;5086165;28;20023;-55
2021/01/08 10:55:11;;;;;;;85.97;27.77;;;10.20;56.80;;;;;;5066432;28;20080;-58
2021/01/08 10:57:38;;;;;;;84.50;29.05;;;10.10;56.40;;;;;;5090796;28;20107;-57
2021/01/08 11:00:10;;;;;;;93.80;30.48;;;10.20;56.30;;;;;;5068289;28;20081;-57
2021/01/08 11:02:40;;;;;;;94.18;28.95;;;10.10;56.50;;;;;;5089623;28;20548;-56
2021/01/08 11:05:08;;;;;;;118.07;31.52;;;10.10;56.60;;;;;;5070461;28;20069;-57
2021/01/08 11:07:34;;;;;;;88.60;29.98;;;10.00;56.90;;;;;;5089977;28;20103;-57
2021/01/08 11:10:04;;;;;;;;;;;10.00;57.00;;;;;;5086508;28;20088;-56
2021/01/08 11:12:34;;;;;;;96.28;31.67;;;10.00;57.00;;;;;;5071117;28;19965;-56
2021/01/08 11:15:02;;;;;;;114.10;36.88;;;10.00;56.50;;;;;;5084535;28;20073;-54
2021/01/08 11:17:29;;;;;;;133.55;41.13;;;10.00;56.40;;;;;;5086805;28;20616;-58
2021/01/08 11:19:55;;;;;;;139.93;43.38;;;10.00;55.90;;;;;;5086949;28;20134;-57
2021/01/08 11:22:22;;;;;;;;;;;10.10;55.80;;;;;;5089893;28;20084;-57
2021/01/08 11:24:48;;;;;;;133.43;45.28;;;10.10;55.60;;;;;;5091166;28;19968;-58
2021/01/08 11:27:15;;;;;;;162.77;47.65;;;10.10;55.80;;;;;;5090066;28;20084;-59
2021/01/08 11:29:41;;;;;;;132.77;46.05;;;10.10;56.20;;;;;;5086105;28;20076;-58
2021/01/08 11:32:08;;;;;;;;;;;10.10;55.80;;;;;;5086437;28;20159;-57
2021/01/08 11:34:35;;;;;;;145.25;47.92;;;10.20;55.70;;;;;;5088619;28;19985;-57
2021/01/08 11:37:02;;;;;;;137.48;47.13;;;10.10;55.10;;;;;;5081691;28;20111;-56
2021/01/08 11:39:28;;;;;;;;;;;10.00;55.20;;;;;;5087255;28;20443;-58
2021/01/08 11:41:55;;;;;;;154.38;49.47;;;10.10;55.40;;;;;;5082963;28;20011;-58
2021/01/08 11:44:23;;;;;;;137.68;50.15;;;10.10;55.20;;;;;;5081452;28;20077;-56
2021/01/08 11:46:50;;;;;;;143.32;53.05;;;10.10;55.00;;;;;;5087060;28;20130;-57
2021/01/08 11:49:18;;;;;;;156.68;52.35;;;10.10;54.80;;;;;;5083786;28;20083;-58
2021/01/08 11:51:45;;;;;;;151.38;52.92;;;10.00;54.90;;;;;;5084834;28;20073;-57
2021/01/08 11:54:12;;;;;;;145.95;53.28;;;9.90;55.20;;;;;;5083331;28;20517;-58
2021/01/08 11:56:38;;;;;;;144.88;53.20;;;10.00;55.30;;;;;;5078364;28;20462;-54
2021/01/08 11:59:05;;;;;;;146.77;53.63;;;10.00;54.70;;;;;;5078484;28;20080;-55
2021/01/08 12:01:33;;;;;;;152.25;52.97;;;9.90;54.60;;;;;;5086534;28;20429;-55
2021/01/08 12:04:00;;;;;;;140.77;52.60;;;9.90;54.40;;;;;;5081982;28;20073;-57
2021/01/08 12:06:32;;;;;;;156.43;54.90;;;9.80;54.20;;;;;;5087430;28;20065;-58
2021/01/08 12:09:03;;;;;;;148.90;55.92;;;9.80;54.30;;;;;;5084017;28;20096;-57
2021/01/08 12:11:30;;;;;;;143.88;52.60;;;9.90;54.50;;;;;;5082684;28;20077;-58
2021/01/08 12:13:59;;;;;;;;;;;9.90;54.50;;;;;;5067207;28;20072;-58
2021/01/08 12:16:33;;;;;;;146.75;50.75;;;9.90;54.60;;;;;;5084228;28;19971;-59
2021/01/08 12:19:00;;;;;;;151.02;54.75;;;9.80;54.30;;;;;;5086569;28;20414;-58
2021/01/08 12:21:30;;;;;;;148.75;51.17;;;9.70;54.50;;;;;;5085570;28;20077;-58
2021/01/08 12:23:57;;;;;;;137.98;50.75;;;9.80;54.70;;;;;;5082411;28;20142;-55
2021/01/08 12:26:24;;;;;;;140.98;49.75;;;9.70;53.90;;;;;;5083158;28;20561;-63
2021/01/08 12:28:51;;;;;;;140.15;48.28;;;9.70;54.00;;;;;;5084587;28;20529;-56
2021/01/08 12:31:25;;;;;;;133.75;46.80;;;9.80;54.00;;;;;;5085417;28;20069;-58
2021/01/08 12:33:52;;;;;;;118.95;44.95;;;9.80;53.30;;;;;;5087509;28;20577;-59
2021/01/08 12:36:22;;;;;;;126.07;44.22;;;9.80;53.10;;;;;;5083512;28;20077;-57
2021/01/08 12:38:49;;;;;;;139.02;45.85;;;9.80;53.30;;;;;;5082408;28;20087;-55
2021/01/08 12:41:16;;;;;;;140.90;45.45;;;9.70;53.30;;;;;;5082635;28;20075;-57
2021/01/08 12:43:43;;;;;;;127.78;42.00;;;9.70;53.10;;;;;;5085828;28;20076;-59